sensor_id;sensor_type;location;lat;lon;timestamp;P1;durP1;ratioP1;P2;durP2;ratioP2
21634;SDS011;10979;48.306;9.830;2022-09-09T00:04:29;0.10;;;0.10;;
21634;SDS011;10979;48.306;9.830;2022-09-09T00:07:03;0.10;;;0.10;;
21634;SDS011;10979;48.306;9.830;2022-09-09T00:15:14;0.10;;;0.10;;
21634;SDS011;10979;48.306;9.830;2022-09-09T00:17:53;0.10;;;0.10;;
21634;SDS011;10979;48.306;9.830;2022-09-09T00:20:21;0.10;;;0.10;;
21634;SDS011;10979;48.306;9.830;2022-09-09T00:23:01;0.10;;;0.10;;
21634;SDS011;10979;48.306;9.830;2022-09-09T00:28:23;0.10;;;0.10;;
21634;SDS011;10979;48.306;9.830;2022-09-09T00:30:51;0.10;;;0.10;;
21634;SDS011;10979;48.306;9.830;2022-09-09T00:33:19;0.10;;;0.10;;
21634;SDS011;10979;48.306;9.830;2022-09-09T00:35:48;0.10;;;0.10;;
21634;SDS011;10979;48.306;9.830;2022-09-09T00:38:34;0.17;;;0.17;;
21634;SDS011;10979;48.306;9.830;2022-09-09T00:41:09;0.10;;;0.10;;
21634;SDS011;10979;48.306;9.830;2022-09-09T00:43:42;0.10;;;0.10;;
21634;SDS011;10979;48.306;9.830;2022-09-09T00:49:38;0.10;;;0.10;;
21634;SDS011;10979;48.306;9.830;2022-09-09T00:52:23;0.10;;;0.10;;
21634;SDS011;10979;48.306;9.830;2022-09-09T00:55:13;0.10;;;0.10;;
21634;SDS011;10979;48.306;9.830;2022-09-09T00:57:46;0.10;;;0.10;;
21634;SDS011;10979;48.306;9.830;2022-09-09T01:02:55;0.10;;;0.10;;
21634;SDS011;10979;48.306;9.830;2022-09-09T01:05:36;0.10;;;0.10;;
21634;SDS011;10979;48.306;9.830;2022-09-09T01:11:25;0.20;;;0.20;;
21634;SDS011;10979;48.306;9.830;2022-09-09T01:14:00;0.10;;;0.10;;
21634;SDS011;10979;48.306;9.830;2022-09-09T01:16:35;0.10;;;0.10;;
21634;SDS011;10979;48.306;9.830;2022-09-09T01:19:01;0.10;;;0.10;;
21634;SDS011;10979;48.306;9.830;2022-09-09T01:21:50;0.20;;;0.20;;
21634;SDS011;10979;48.306;9.830;2022-09-09T01:27:32;0.20;;;0.20;;
21634;SDS011;10979;48.306;9.830;2022-09-09T01:29:58;0.10;;;0.10;;
21634;SDS011;10979;48.306;9.830;2022-09-09T01:32:38;0.10;;;0.10;;
21634;SDS011;10979;48.306;9.830;2022-09-09T01:37:56;0.20;;;0.20;;
21634;SDS011;10979;48.306;9.830;2022-09-09T01:40:22;0.10;;;0.10;;
21634;SDS011;10979;48.306;9.830;2022-09-09T01:42:48;0.10;;;0.10;;
21634;SDS011;10979;48.306;9.830;2022-09-09T01:45:13;0.10;;;0.10;;
21634;SDS011;10979;48.306;9.830;2022-09-09T01:47:39;0.10;;;0.10;;
21634;SDS011;10979;48.306;9.830;2022-09-09T01:50:06;0.20;;;0.20;;
21634;SDS011;10979;48.306;9.830;2022-09-09T01:52:36;0.20;;;0.20;;
21634;SDS011;10979;48.306;9.830;2022-09-09T01:55:02;0.20;;;0.20;;
21634;SDS011;10979;48.306;9.830;2022-09-09T01:57:33;0.10;;;0.10;;
21634;SDS011;10979;48.306;9.830;2022-09-09T02:00:11;0.10;;;0.10;;
21634;SDS011;10979;48.306;9.830;2022-09-09T02:02:41;0.10;;;0.10;;
21634;SDS011;10979;48.306;9.830;2022-09-09T02:08:06;0.20;;;0.20;;
21634;SDS011;10979;48.306;9.830;2022-09-09T02:13:04;0.20;;;0.20;;
21634;SDS011;10979;48.306;9.830;2022-09-09T02:15:43;0.15;;;0.15;;
21634;SDS011;10979;48.306;9.830;2022-09-09T02:18:28;0.20;;;0.20;;
21634;SDS011;10979;48.306;9.830;2022-09-09T02:20:59;0.20;;;0.20;;
21634;SDS011;10979;48.306;9.830;2022-09-09T02:23:27;0.10;;;0.10;;
21634;SDS011;10979;48.306;9.830;2022-09-09T02:25:55;0.10;;;0.10;;
21634;SDS011;10979;48.306;9.830;2022-09-09T02:28:21;0.10;;;0.10;;
21634;SDS011;10979;48.306;9.830;2022-09-09T02:30:51;0.10;;;0.10;;
21634;SDS011;10979;48.306;9.830;2022-09-09T02:33:21;0.10;;;0.10;;
21634;SDS011;10979;48.306;9.830;2022-09-09T02:35:51;0.10;;;0.10;;
21634;SDS011;10979;48.306;9.830;2022-09-09T02:38:18;0.20;;;0.20;;
21634;SDS011;10979;48.306;9.830;2022-09-09T02:40:46;0.15;;;0.15;;
21634;SDS011;10979;48.306;9.830;2022-09-09T02:43:13;0.10;;;0.10;;
21634;SDS011;10979;48.306;9.830;2022-09-09T02:45:42;0.10;;;0.10;;
21634;SDS011;10979;48.306;9.830;2022-09-09T02:50:55;0.10;;;0.10;;
21634;SDS011;10979;48.306;9.830;2022-09-09T02:53:47;0.10;;;0.10;;
21634;SDS011;10979;48.306;9.830;2022-09-09T02:56:21;0.10;;;0.10;;
21634;SDS011;10979;48.306;9.830;2022-09-09T02:58:50;0.10;;;0.10;;
21634;SDS011;10979;48.306;9.830;2022-09-09T03:01:16;0.10;;;0.10;;
21634;SDS011;10979;48.306;9.830;2022-09-09T03:03:42;0.10;;;0.10;;
21634;SDS011;10979;48.306;9.830;2022-09-09T03:06:09;0.13;;;0.13;;
21634;SDS011;10979;48.306;9.830;2022-09-09T03:08:36;0.13;;;0.13;;
21634;SDS011;10979;48.306;9.830;2022-09-09T03:11:02;0.10;;;0.10;;
21634;SDS011;10979;48.306;9.830;2022-09-09T03:13:28;0.10;;;0.10;;
21634;SDS011;10979;48.306;9.830;2022-09-09T03:15:54;0.20;;;0.20;;
21634;SDS011;10979;48.306;9.830;2022-09-09T03:18:19;0.15;;;0.15;;
21634;SDS011;10979;48.306;9.830;2022-09-09T03:20:45;0.10;;;0.10;;
21634;SDS011;10979;48.306;9.830;2022-09-09T03:23:13;0.20;;;0.20;;
21634;SDS011;10979;48.306;9.830;2022-09-09T03:25:39;0.10;;;0.10;;
21634;SDS011;10979;48.306;9.830;2022-09-09T03:28:11;0.10;;;0.10;;
21634;SDS011;10979;48.306;9.830;2022-09-09T03:30:36;0.10;;;0.10;;
21634;SDS011;10979;48.306;9.830;2022-09-09T03:33:02;0.10;;;0.10;;
21634;SDS011;10979;48.306;9.830;2022-09-09T03:35:28;0.10;;;0.10;;
21634;SDS011;10979;48.306;9.830;2022-09-09T03:37:54;0.10;;;0.10;;
21634;SDS011;10979;48.306;9.830;2022-09-09T03:40:20;0.10;;;0.10;;
21634;SDS011;10979;48.306;9.830;2022-09-09T03:42:46;0.10;;;0.10;;
21634;SDS011;10979;48.306;9.830;2022-09-09T03:45:13;0.10;;;0.10;;
21634;SDS011;10979;48.306;9.830;2022-09-09T03:47:38;0.10;;;0.10;;
21634;SDS011;10979;48.306;9.830;2022-09-09T03:50:04;0.10;;;0.10;;
21634;SDS011;10979;48.306;9.830;2022-09-09T03:52:34;0.10;;;0.10;;
21634;SDS011;10979;48.306;9.830;2022-09-09T03:55:04;0.10;;;0.10;;
21634;SDS011;10979;48.306;9.830;2022-09-09T03:57:30;0.10;;;0.10;;
21634;SDS011;10979;48.306;9.830;2022-09-09T03:59:56;0.10;;;0.10;;
21634;SDS011;10979;48.306;9.830;2022-09-09T04:02:23;0.10;;;0.10;;
21634;SDS011;10979;48.306;9.830;2022-09-09T04:04:48;0.10;;;0.10;;
21634;SDS011;10979;48.306;9.830;2022-09-09T04:07:14;0.10;;;0.10;;
21634;SDS011;10979;48.306;9.830;2022-09-09T04:09:39;0.10;;;0.10;;
21634;SDS011;10979;48.306;9.830;2022-09-09T04:12:05;0.10;;;0.10;;
21634;SDS011;10979;48.306;9.830;2022-09-09T04:14:31;0.10;;;0.10;;
21634;SDS011;10979;48.306;9.830;2022-09-09T04:16:57;0.10;;;0.10;;
21634;SDS011;10979;48.306;9.830;2022-09-09T04:19:24;0.10;;;0.10;;
21634;SDS011;10979;48.306;9.830;2022-09-09T04:21:50;0.10;;;0.10;;
21634;SDS011;10979;48.306;9.830;2022-09-09T04:24:16;0.10;;;0.10;;
21634;SDS011;10979;48.306;9.830;2022-09-09T04:26:42;0.10;;;0.10;;
21634;SDS011;10979;48.306;9.830;2022-09-09T04:29:08;0.10;;;0.10;;
21634;SDS011;10979;48.306;9.830;2022-09-09T04:31:34;0.10;;;0.10;;
21634;SDS011;10979;48.306;9.830;2022-09-09T04:34:00;0.10;;;0.10;;
21634;SDS011;10979;48.306;9.830;2022-09-09T04:36:30;0.10;;;0.10;;
21634;SDS011;10979;48.306;9.830;2022-09-09T04:38:56;0.10;;;0.10;;
21634;SDS011;10979;48.306;9.830;2022-09-09T04:41:22;0.10;;;0.10;;
21634;SDS011;10979;48.306;9.830;2022-09-09T04:43:48;0.20;;;0.20;;
21634;SDS011;10979;48.306;9.830;2022-09-09T04:46:14;0.10;;;0.10;;
21634;SDS011;10979;48.306;9.830;2022-09-09T04:48:42;0.10;;;0.10;;
21634;SDS011;10979;48.306;9.830;2022-09-09T04:51:08;0.10;;;0.10;;
21634;SDS011;10979;48.306;9.830;2022-09-09T04:53:38;0.10;;;0.10;;
21634;SDS011;10979;48.306;9.830;2022-09-09T04:58:31;0.10;;;0.10;;
21634;SDS011;10979;48.306;9.830;2022-09-09T05:01:07;0.10;;;0.10;;
21634;SDS011;10979;48.306;9.830;2022-09-09T05:03:52;0.10;;;0.10;;
21634;SDS011;10979;48.306;9.830;2022-09-09T05:06:19;0.10;;;0.10;;
21634;SDS011;10979;48.306;9.830;2022-09-09T05:08:46;0.10;;;0.10;;
21634;SDS011;10979;48.306;9.830;2022-09-09T05:11:26;0.10;;;0.10;;
21634;SDS011;10979;48.306;9.830;2022-09-09T05:13:53;0.10;;;0.10;;
21634;SDS011;10979;48.306;9.830;2022-09-09T05:16:19;0.10;;;0.10;;
21634;SDS011;10979;48.306;9.830;2022-09-09T05:18:46;0.10;;;0.10;;
21634;SDS011;10979;48.306;9.830;2022-09-09T05:21:12;0.10;;;0.10;;
21634;SDS011;10979;48.306;9.830;2022-09-09T05:23:39;0.10;;;0.10;;
21634;SDS011;10979;48.306;9.830;2022-09-09T05:26:05;0.10;;;0.10;;
21634;SDS011;10979;48.306;9.830;2022-09-09T05:28:33;0.10;;;0.10;;
21634;SDS011;10979;48.306;9.830;2022-09-09T05:31:09;0.10;;;0.10;;
21634;SDS011;10979;48.306;9.830;2022-09-09T05:33:37;0.10;;;0.10;;
21634;SDS011;10979;48.306;9.830;2022-09-09T05:36:06;0.10;;;0.10;;
21634;SDS011;10979;48.306;9.830;2022-09-09T05:38:35;0.10;;;0.10;;
21634;SDS011;10979;48.306;9.830;2022-09-09T05:41:02;0.10;;;0.10;;
21634;SDS011;10979;48.306;9.830;2022-09-09T05:43:28;0.10;;;0.10;;
21634;SDS011;10979;48.306;9.830;2022-09-09T05:46:01;0.10;;;0.10;;
21634;SDS011;10979;48.306;9.830;2022-09-09T05:48:29;0.10;;;0.10;;
21634;SDS011;10979;48.306;9.830;2022-09-09T05:50:57;0.10;;;0.10;;
21634;SDS011;10979;48.306;9.830;2022-09-09T05:53:24;0.10;;;0.10;;
21634;SDS011;10979;48.306;9.830;2022-09-09T05:55:50;0.10;;;0.10;;
21634;SDS011;10979;48.306;9.830;2022-09-09T05:58:15;0.10;;;0.10;;
21634;SDS011;10979;48.306;9.830;2022-09-09T06:00:41;0.10;;;0.10;;
21634;SDS011;10979;48.306;9.830;2022-09-09T06:03:10;0.10;;;0.10;;
21634;SDS011;10979;48.306;9.830;2022-09-09T06:05:36;0.10;;;0.10;;
21634;SDS011;10979;48.306;9.830;2022-09-09T06:08:02;0.10;;;0.10;;
21634;SDS011;10979;48.306;9.830;2022-09-09T06:10:28;0.10;;;0.10;;
21634;SDS011;10979;48.306;9.830;2022-09-09T06:12:53;0.10;;;0.10;;
21634;SDS011;10979;48.306;9.830;2022-09-09T06:15:19;0.00;;;0.00;;
21634;SDS011;10979;48.306;9.830;2022-09-09T06:17:45;0.00;;;0.00;;
21634;SDS011;10979;48.306;9.830;2022-09-09T06:20:10;0.00;;;0.00;;
21634;SDS011;10979;48.306;9.830;2022-09-09T06:22:39;0.10;;;0.10;;
21634;SDS011;10979;48.306;9.830;2022-09-09T06:25:06;0.10;;;0.10;;
21634;SDS011;10979;48.306;9.830;2022-09-09T06:27:32;0.08;;;0.08;;
21634;SDS011;10979;48.306;9.830;2022-09-09T06:29:58;0.00;;;0.00;;
21634;SDS011;10979;48.306;9.830;2022-09-09T06:32:23;0.00;;;0.00;;
21634;SDS011;10979;48.306;9.830;2022-09-09T06:34:49;0.00;;;0.00;;
21634;SDS011;10979;48.306;9.830;2022-09-09T06:37:15;0.00;;;0.00;;
21634;SDS011;10979;48.306;9.830;2022-09-09T06:39:41;0.05;;;0.05;;
21634;SDS011;10979;48.306;9.830;2022-09-09T06:42:06;0.08;;;0.08;;
21634;SDS011;10979;48.306;9.830;2022-09-09T06:44:34;0.10;;;0.10;;
21634;SDS011;10979;48.306;9.830;2022-09-09T06:46:59;0.10;;;0.10;;
21634;SDS011;10979;48.306;9.830;2022-09-09T06:49:25;0.00;;;0.00;;
21634;SDS011;10979;48.306;9.830;2022-09-09T06:51:50;0.00;;;0.00;;
21634;SDS011;10979;48.306;9.830;2022-09-09T06:54:17;0.00;;;0.00;;
21634;SDS011;10979;48.306;9.830;2022-09-09T06:56:43;0.00;;;0.00;;
21634;SDS011;10979;48.306;9.830;2022-09-09T06:59:10;0.00;;;0.00;;
21634;SDS011;10979;48.306;9.830;2022-09-09T07:01:41;0.00;;;0.00;;
21634;SDS011;10979;48.306;9.830;2022-09-09T07:04:11;0.00;;;0.00;;
21634;SDS011;10979;48.306;9.830;2022-09-09T07:06:39;0.00;;;0.00;;
21634;SDS011;10979;48.306;9.830;2022-09-09T07:09:09;0.00;;;0.00;;
21634;SDS011;10979;48.306;9.830;2022-09-09T07:11:40;0.00;;;0.00;;
21634;SDS011;10979;48.306;9.830;2022-09-09T07:14:13;0.00;;;0.00;;
21634;SDS011;10979;48.306;9.830;2022-09-09T07:16:40;0.00;;;0.00;;
21634;SDS011;10979;48.306;9.830;2022-09-09T07:19:09;0.00;;;0.00;;
21634;SDS011;10979;48.306;9.830;2022-09-09T07:21:36;0.00;;;0.00;;
21634;SDS011;10979;48.306;9.830;2022-09-09T07:24:01;0.00;;;0.00;;
21634;SDS011;10979;48.306;9.830;2022-09-09T07:26:28;0.00;;;0.00;;
21634;SDS011;10979;48.306;9.830;2022-09-09T07:28:55;0.00;;;0.00;;
21634;SDS011;10979;48.306;9.830;2022-09-09T07:34:01;0.00;;;0.00;;
21634;SDS011;10979;48.306;9.830;2022-09-09T07:36:28;0.00;;;0.00;;
21634;SDS011;10979;48.306;9.830;2022-09-09T07:38:59;0.00;;;0.00;;
21634;SDS011;10979;48.306;9.830;2022-09-09T07:44:03;0.00;;;0.00;;
21634;SDS011;10979;48.306;9.830;2022-09-09T07:46:32;0.00;;;0.00;;
21634;SDS011;10979;48.306;9.830;2022-09-09T07:48:59;0.00;;;0.00;;
21634;SDS011;10979;48.306;9.830;2022-09-09T07:51:27;0.00;;;0.00;;
21634;SDS011;10979;48.306;9.830;2022-09-09T07:53:56;0.00;;;0.00;;
21634;SDS011;10979;48.306;9.830;2022-09-09T07:56:24;0.00;;;0.00;;
21634;SDS011;10979;48.306;9.830;2022-09-09T07:58:51;0.00;;;0.00;;
21634;SDS011;10979;48.306;9.830;2022-09-09T08:01:20;0.00;;;0.00;;
21634;SDS011;10979;48.306;9.830;2022-09-09T08:03:52;0.00;;;0.00;;
21634;SDS011;10979;48.306;9.830;2022-09-09T08:06:19;0.00;;;0.00;;
21634;SDS011;10979;48.306;9.830;2022-09-09T08:08:49;0.00;;;0.00;;
21634;SDS011;10979;48.306;9.830;2022-09-09T08:11:15;0.00;;;0.00;;
21634;SDS011;10979;48.306;9.830;2022-09-09T08:13:42;0.00;;;0.00;;
21634;SDS011;10979;48.306;9.830;2022-09-09T08:16:12;0.00;;;0.00;;
21634;SDS011;10979;48.306;9.830;2022-09-09T08:18:40;0.00;;;0.00;;
21634;SDS011;10979;48.306;9.830;2022-09-09T08:21:07;0.00;;;0.00;;
21634;SDS011;10979;48.306;9.830;2022-09-09T08:23:36;0.00;;;0.00;;
21634;SDS011;10979;48.306;9.830;2022-09-09T08:26:14;0.00;;;0.00;;
21634;SDS011;10979;48.306;9.830;2022-09-09T08:28:41;0.00;;;0.00;;
21634;SDS011;10979;48.306;9.830;2022-09-09T08:31:11;0.00;;;0.00;;
21634;SDS011;10979;48.306;9.830;2022-09-09T08:33:39;0.00;;;0.00;;
21634;SDS011;10979;48.306;9.830;2022-09-09T08:36:06;0.00;;;0.00;;
21634;SDS011;10979;48.306;9.830;2022-09-09T08:38:34;0.00;;;0.00;;
21634;SDS011;10979;48.306;9.830;2022-09-09T08:44:46;0.00;;;0.00;;
21634;SDS011;10979;48.306;9.830;2022-09-09T08:50:12;0.00;;;0.00;;
21634;SDS011;10979;48.306;9.830;2022-09-09T08:56:11;0.00;;;0.00;;
21634;SDS011;10979;48.306;9.830;2022-09-09T08:58:41;0.00;;;0.00;;
21634;SDS011;10979;48.306;9.830;2022-09-09T09:12:18;0.00;;;0.00;;
21634;SDS011;10979;48.306;9.830;2022-09-09T09:14:47;0.00;;;0.00;;
21634;SDS011;10979;48.306;9.830;2022-09-09T09:17:14;0.00;;;0.00;;
21634;SDS011;10979;48.306;9.830;2022-09-09T09:19:48;0.00;;;0.00;;
21634;SDS011;10979;48.306;9.830;2022-09-09T09:22:19;0.00;;;0.00;;
21634;SDS011;10979;48.306;9.830;2022-09-09T09:24:58;0.00;;;0.00;;
21634;SDS011;10979;48.306;9.830;2022-09-09T09:27:28;0.00;;;0.00;;
21634;SDS011;10979;48.306;9.830;2022-09-09T09:30:01;0.00;;;0.00;;
21634;SDS011;10979;48.306;9.830;2022-09-09T09:32:37;0.00;;;0.00;;
21634;SDS011;10979;48.306;9.830;2022-09-09T09:35:06;0.00;;;0.00;;
21634;SDS011;10979;48.306;9.830;2022-09-09T09:37:37;0.00;;;0.00;;
21634;SDS011;10979;48.306;9.830;2022-09-09T09:40:15;0.00;;;0.00;;
21634;SDS011;10979;48.306;9.830;2022-09-09T09:42:52;0.00;;;0.00;;
21634;SDS011;10979;48.306;9.830;2022-09-09T09:45:26;0.00;;;0.00;;
21634;SDS011;10979;48.306;9.830;2022-09-09T09:48:10;0.00;;;0.00;;
21634;SDS011;10979;48.306;9.830;2022-09-09T09:53:38;0.00;;;0.00;;
21634;SDS011;10979;48.306;9.830;2022-09-09T09:56:08;0.00;;;0.00;;
21634;SDS011;10979;48.306;9.830;2022-09-09T10:01:20;0.00;;;0.00;;
21634;SDS011;10979;48.306;9.830;2022-09-09T10:04:02;0.00;;;0.00;;
21634;SDS011;10979;48.306;9.830;2022-09-09T10:06:48;0.00;;;0.00;;
21634;SDS011;10979;48.306;9.830;2022-09-09T10:09:25;0.00;;;0.00;;
21634;SDS011;10979;48.306;9.830;2022-09-09T10:20:04;0.00;;;0.00;;
21634;SDS011;10979;48.306;9.830;2022-09-09T10:22:52;0.00;;;0.00;;
21634;SDS011;10979;48.306;9.830;2022-09-09T10:31:21;0.00;;;0.00;;
21634;SDS011;10979;48.306;9.830;2022-09-09T10:36:46;0.00;;;0.00;;
21634;SDS011;10979;48.306;9.830;2022-09-09T10:47:32;0.00;;;0.00;;
21634;SDS011;10979;48.306;9.830;2022-09-09T10:50:20;0.00;;;0.00;;
21634;SDS011;10979;48.306;9.830;2022-09-09T10:55:43;0.00;;;0.00;;
21634;SDS011;10979;48.306;9.830;2022-09-09T10:58:20;0.00;;;0.00;;
21634;SDS011;10979;48.306;9.830;2022-09-09T11:00:54;0.00;;;0.00;;
21634;SDS011;10979;48.306;9.830;2022-09-09T11:03:24;0.00;;;0.00;;
21634;SDS011;10979;48.306;9.830;2022-09-09T11:06:01;0.00;;;0.00;;
21634;SDS011;10979;48.306;9.830;2022-09-09T11:08:30;0.00;;;0.00;;
21634;SDS011;10979;48.306;9.830;2022-09-09T11:11:16;0.00;;;0.00;;
21634;SDS011;10979;48.306;9.830;2022-09-09T11:13:49;0.00;;;0.00;;
21634;SDS011;10979;48.306;9.830;2022-09-09T11:16:32;0.00;;;0.00;;
21634;SDS011;10979;48.306;9.830;2022-09-09T11:19:19;0.00;;;0.00;;
21634;SDS011;10979;48.306;9.830;2022-09-09T11:21:47;0.00;;;0.00;;
21634;SDS011;10979;48.306;9.830;2022-09-09T11:24:16;0.00;;;0.00;;
21634;SDS011;10979;48.306;9.830;2022-09-09T11:26:51;0.00;;;0.00;;
21634;SDS011;10979;48.306;9.830;2022-09-09T11:32:17;0.00;;;0.00;;
21634;SDS011;10979;48.306;9.830;2022-09-09T11:37:54;0.00;;;0.00;;
21634;SDS011;10979;48.306;9.830;2022-09-09T11:40:43;0.00;;;0.00;;
21634;SDS011;10979;48.306;9.830;2022-09-09T11:46:06;0.00;;;0.00;;
21634;SDS011;10979;48.306;9.830;2022-09-09T11:48:43;0.00;;;0.00;;
21634;SDS011;10979;48.306;9.830;2022-09-09T11:51:25;0.00;;;0.00;;
21634;SDS011;10979;48.306;9.830;2022-09-09T11:54:00;0.00;;;0.00;;
21634;SDS011;10979;48.306;9.830;2022-09-09T11:59:03;0.00;;;0.00;;
21634;SDS011;10979;48.306;9.830;2022-09-09T12:11:48;0.00;;;0.00;;
21634;SDS011;10979;48.306;9.830;2022-09-09T12:14:21;0.00;;;0.00;;
21634;SDS011;10979;48.306;9.830;2022-09-09T12:17:22;0.00;;;0.00;;
21634;SDS011;10979;48.306;9.830;2022-09-09T12:25:23;0.00;;;0.00;;
21634;SDS011;10979;48.306;9.830;2022-09-09T12:28:12;0.00;;;0.00;;
21634;SDS011;10979;48.306;9.830;2022-09-09T12:33:22;0.00;;;0.00;;
21634;SDS011;10979;48.306;9.830;2022-09-09T12:35:55;0.00;;;0.00;;
21634;SDS011;10979;48.306;9.830;2022-09-09T12:38:30;0.00;;;0.00;;
21634;SDS011;10979;48.306;9.830;2022-09-09T12:40:59;0.00;;;0.00;;
21634;SDS011;10979;48.306;9.830;2022-09-09T12:43:25;0.00;;;0.00;;
21634;SDS011;10979;48.306;9.830;2022-09-09T12:45:56;0.00;;;0.00;;
21634;SDS011;10979;48.306;9.830;2022-09-09T12:48:44;0.00;;;0.00;;
21634;SDS011;10979;48.306;9.830;2022-09-09T12:51:18;0.00;;;0.00;;
21634;SDS011;10979;48.306;9.830;2022-09-09T12:53:50;0.00;;;0.00;;
21634;SDS011;10979;48.306;9.830;2022-09-09T12:56:20;0.00;;;0.00;;
21634;SDS011;10979;48.306;9.830;2022-09-09T12:58:51;0.00;;;0.00;;
21634;SDS011;10979;48.306;9.830;2022-09-09T13:01:29;0.00;;;0.00;;
21634;SDS011;10979;48.306;9.830;2022-09-09T13:03:57;0.00;;;0.00;;
21634;SDS011;10979;48.306;9.830;2022-09-09T13:06:24;0.00;;;0.00;;
21634;SDS011;10979;48.306;9.830;2022-09-09T13:11:26;0.00;;;0.00;;
21634;SDS011;10979;48.306;9.830;2022-09-09T13:14:03;0.00;;;0.00;;
21634;SDS011;10979;48.306;9.830;2022-09-09T13:16:33;0.00;;;0.00;;
21634;SDS011;10979;48.306;9.830;2022-09-09T13:19:01;0.00;;;0.00;;
21634;SDS011;10979;48.306;9.830;2022-09-09T13:21:39;0.00;;;0.00;;
21634;SDS011;10979;48.306;9.830;2022-09-09T13:24:05;0.00;;;0.00;;
21634;SDS011;10979;48.306;9.830;2022-09-09T13:26:59;0.00;;;0.00;;
21634;SDS011;10979;48.306;9.830;2022-09-09T13:29:30;0.00;;;0.00;;
21634;SDS011;10979;48.306;9.830;2022-09-09T13:32:04;0.00;;;0.00;;
21634;SDS011;10979;48.306;9.830;2022-09-09T13:34:33;0.00;;;0.00;;
21634;SDS011;10979;48.306;9.830;2022-09-09T13:37:07;0.00;;;0.00;;
21634;SDS011;10979;48.306;9.830;2022-09-09T13:39:50;0.00;;;0.00;;
21634;SDS011;10979;48.306;9.830;2022-09-09T13:42:28;0.00;;;0.00;;
21634;SDS011;10979;48.306;9.830;2022-09-09T13:44:56;0.00;;;0.00;;
21634;SDS011;10979;48.306;9.830;2022-09-09T13:47:34;0.00;;;0.00;;
21634;SDS011;10979;48.306;9.830;2022-09-09T13:52:50;0.00;;;0.00;;
21634;SDS011;10979;48.306;9.830;2022-09-09T13:55:22;0.00;;;0.00;;
21634;SDS011;10979;48.306;9.830;2022-09-09T13:57:53;0.00;;;0.00;;
21634;SDS011;10979;48.306;9.830;2022-09-09T14:00:23;0.00;;;0.00;;
21634;SDS011;10979;48.306;9.830;2022-09-09T14:02:50;0.00;;;0.00;;
21634;SDS011;10979;48.306;9.830;2022-09-09T14:05:18;0.00;;;0.00;;
21634;SDS011;10979;48.306;9.830;2022-09-09T14:07:44;0.00;;;0.00;;
21634;SDS011;10979;48.306;9.830;2022-09-09T14:10:11;0.00;;;0.00;;
21634;SDS011;10979;48.306;9.830;2022-09-09T14:12:37;0.00;;;0.00;;
21634;SDS011;10979;48.306;9.830;2022-09-09T14:15:03;0.00;;;0.00;;
21634;SDS011;10979;48.306;9.830;2022-09-09T14:17:31;0.00;;;0.00;;
21634;SDS011;10979;48.306;9.830;2022-09-09T14:19:57;0.00;;;0.00;;
21634;SDS011;10979;48.306;9.830;2022-09-09T14:22:23;0.00;;;0.00;;
21634;SDS011;10979;48.306;9.830;2022-09-09T14:24:49;0.00;;;0.00;;
21634;SDS011;10979;48.306;9.830;2022-09-09T14:27:15;0.00;;;0.00;;
21634;SDS011;10979;48.306;9.830;2022-09-09T14:29:41;0.00;;;0.00;;
21634;SDS011;10979;48.306;9.830;2022-09-09T14:32:08;0.00;;;0.00;;
21634;SDS011;10979;48.306;9.830;2022-09-09T14:34:34;0.00;;;0.00;;
21634;SDS011;10979;48.306;9.830;2022-09-09T14:37:00;0.00;;;0.00;;
21634;SDS011;10979;48.306;9.830;2022-09-09T14:39:25;0.00;;;0.00;;
21634;SDS011;10979;48.306;9.830;2022-09-09T14:41:51;0.00;;;0.00;;
21634;SDS011;10979;48.306;9.830;2022-09-09T14:44:17;0.00;;;0.00;;
21634;SDS011;10979;48.306;9.830;2022-09-09T14:46:43;0.00;;;0.00;;
21634;SDS011;10979;48.306;9.830;2022-09-09T14:49:08;0.00;;;0.00;;
21634;SDS011;10979;48.306;9.830;2022-09-09T14:51:35;0.00;;;0.00;;
21634;SDS011;10979;48.306;9.830;2022-09-09T14:54:00;0.00;;;0.00;;
21634;SDS011;10979;48.306;9.830;2022-09-09T14:56:27;0.00;;;0.00;;
21634;SDS011;10979;48.306;9.830;2022-09-09T14:58:55;0.00;;;0.00;;
21634;SDS011;10979;48.306;9.830;2022-09-09T15:01:22;0.00;;;0.00;;
21634;SDS011;10979;48.306;9.830;2022-09-09T15:03:50;0.00;;;0.00;;
21634;SDS011;10979;48.306;9.830;2022-09-09T15:06:18;0.00;;;0.00;;
21634;SDS011;10979;48.306;9.830;2022-09-09T15:08:45;0.00;;;0.00;;
21634;SDS011;10979;48.306;9.830;2022-09-09T15:11:12;0.03;;;0.03;;
21634;SDS011;10979;48.306;9.830;2022-09-09T15:13:40;0.00;;;0.00;;
21634;SDS011;10979;48.306;9.830;2022-09-09T15:16:08;0.00;;;0.00;;
21634;SDS011;10979;48.306;9.830;2022-09-09T15:18:35;0.00;;;0.00;;
21634;SDS011;10979;48.306;9.830;2022-09-09T15:21:01;0.00;;;0.00;;
21634;SDS011;10979;48.306;9.830;2022-09-09T15:23:31;0.00;;;0.00;;
21634;SDS011;10979;48.306;9.830;2022-09-09T15:26:00;0.00;;;0.00;;
21634;SDS011;10979;48.306;9.830;2022-09-09T15:28:26;0.00;;;0.00;;
21634;SDS011;10979;48.306;9.830;2022-09-09T15:30:52;0.00;;;0.00;;
21634;SDS011;10979;48.306;9.830;2022-09-09T15:33:19;0.00;;;0.00;;
21634;SDS011;10979;48.306;9.830;2022-09-09T15:35:46;0.00;;;0.00;;
21634;SDS011;10979;48.306;9.830;2022-09-09T15:38:12;0.00;;;0.00;;
21634;SDS011;10979;48.306;9.830;2022-09-09T15:40:38;0.00;;;0.00;;
21634;SDS011;10979;48.306;9.830;2022-09-09T15:43:05;0.00;;;0.00;;
21634;SDS011;10979;48.306;9.830;2022-09-09T15:45:31;0.00;;;0.00;;
21634;SDS011;10979;48.306;9.830;2022-09-09T15:47:58;0.00;;;0.00;;
21634;SDS011;10979;48.306;9.830;2022-09-09T15:50:27;0.00;;;0.00;;
21634;SDS011;10979;48.306;9.830;2022-09-09T15:52:55;0.00;;;0.00;;
21634;SDS011;10979;48.306;9.830;2022-09-09T15:55:20;0.00;;;0.00;;
21634;SDS011;10979;48.306;9.830;2022-09-09T15:57:46;0.00;;;0.00;;
21634;SDS011;10979;48.306;9.830;2022-09-09T16:00:12;0.00;;;0.00;;
21634;SDS011;10979;48.306;9.830;2022-09-09T16:02:39;0.00;;;0.00;;
21634;SDS011;10979;48.306;9.830;2022-09-09T16:05:05;0.00;;;0.00;;
21634;SDS011;10979;48.306;9.830;2022-09-09T16:07:31;0.00;;;0.00;;
21634;SDS011;10979;48.306;9.830;2022-09-09T16:09:56;0.00;;;0.00;;
21634;SDS011;10979;48.306;9.830;2022-09-09T16:12:22;0.00;;;0.00;;
21634;SDS011;10979;48.306;9.830;2022-09-09T16:14:47;0.00;;;0.00;;
21634;SDS011;10979;48.306;9.830;2022-09-09T16:17:13;0.00;;;0.00;;
21634;SDS011;10979;48.306;9.830;2022-09-09T16:19:40;0.00;;;0.00;;
21634;SDS011;10979;48.306;9.830;2022-09-09T16:22:05;0.00;;;0.00;;
21634;SDS011;10979;48.306;9.830;2022-09-09T16:24:31;0.00;;;0.00;;
21634;SDS011;10979;48.306;9.830;2022-09-09T16:26:57;0.00;;;0.00;;
21634;SDS011;10979;48.306;9.830;2022-09-09T16:29:23;0.00;;;0.00;;
21634;SDS011;10979;48.306;9.830;2022-09-09T16:31:51;0.00;;;0.00;;
21634;SDS011;10979;48.306;9.830;2022-09-09T16:34:17;0.00;;;0.00;;
21634;SDS011;10979;48.306;9.830;2022-09-09T16:36:43;0.00;;;0.00;;
21634;SDS011;10979;48.306;9.830;2022-09-09T16:39:11;0.00;;;0.00;;
21634;SDS011;10979;48.306;9.830;2022-09-09T16:41:42;0.00;;;0.00;;
21634;SDS011;10979;48.306;9.830;2022-09-09T16:44:10;0.00;;;0.00;;
21634;SDS011;10979;48.306;9.830;2022-09-09T16:46:37;0.00;;;0.00;;
21634;SDS011;10979;48.306;9.830;2022-09-09T16:49:07;0.00;;;0.00;;
21634;SDS011;10979;48.306;9.830;2022-09-09T16:51:35;0.00;;;0.00;;
21634;SDS011;10979;48.306;9.830;2022-09-09T16:54:05;0.00;;;0.00;;
21634;SDS011;10979;48.306;9.830;2022-09-09T16:56:33;0.00;;;0.00;;
21634;SDS011;10979;48.306;9.830;2022-09-09T16:59:02;0.00;;;0.00;;
21634;SDS011;10979;48.306;9.830;2022-09-09T17:01:34;0.00;;;0.00;;
21634;SDS011;10979;48.306;9.830;2022-09-09T17:04:06;0.00;;;0.00;;
21634;SDS011;10979;48.306;9.830;2022-09-09T17:06:33;0.00;;;0.00;;
21634;SDS011;10979;48.306;9.830;2022-09-09T17:09:00;0.00;;;0.00;;
21634;SDS011;10979;48.306;9.830;2022-09-09T17:11:28;0.00;;;0.00;;
21634;SDS011;10979;48.306;9.830;2022-09-09T17:13:54;0.00;;;0.00;;
21634;SDS011;10979;48.306;9.830;2022-09-09T17:16:21;0.00;;;0.00;;